createdAt,value
2024-03-12T00:01:50.178Z,9.60
2024-03-12T00:16:40.977Z,9.53
2024-03-12T00:31:33.093Z,9.40
2024-03-12T00:46:24.811Z,9.37
2024-03-12T01:01:16.865Z,9.35
2024-03-12T01:16:08.776Z,9.22
2024-03-12T02:31:18.116Z,9.19
2024-03-12T03:15:25.899Z,9.44
2024-03-12T06:14:37.332Z,9.04
2024-03-12T06:29:27.761Z,9.14
2024-03-12T06:44:19.059Z,9.16
2024-03-12T06:59:10.409Z,9.23
2024-03-12T07:14:02.090Z,9.23
2024-03-12T07:28:53.406Z,9.28
2024-03-12T07:43:44.285Z,9.33
2024-03-12T07:58:38.530Z,10.65
2024-03-12T08:13:29.345Z,10.53
2024-03-12T08:28:19.857Z,10.04
2024-03-12T08:43:11.408Z,10.05
2024-03-12T08:58:03.302Z,10.44
2024-03-12T09:12:56.293Z,10.69
2024-03-12T09:27:47.573Z,10.65
2024-03-12T09:42:38.356Z,10.48
2024-03-12T09:57:28.811Z,10.52
2024-03-12T10:12:19.184Z,10.26
2024-03-12T10:27:10.308Z,10.31
2024-03-12T10:42:01.423Z,10.22
2024-03-12T10:56:51.721Z,10.37
2024-03-12T11:11:43.381Z,10.30
2024-03-12T11:26:36.623Z,10.28
2024-03-12T11:41:26.002Z,10.53
2024-03-12T11:56:17.265Z,10.49
2024-03-12T12:11:13.582Z,10.67
2024-03-12T12:26:08.924Z,11.00
2024-03-12T12:41:01.944Z,11.04
2024-03-12T12:55:58.112Z,11.23
2024-03-12T13:10:58.039Z,11.36
2024-03-12T13:25:53.820Z,11.33
2024-03-12T13:40:46.141Z,11.36
2024-03-12T13:55:37.066Z,11.45
2024-03-12T14:10:28.612Z,11.31
2024-03-12T14:25:19.281Z,11.28
2024-03-12T14:40:12.223Z,11.39
2024-03-12T14:55:04.194Z,11.36
2024-03-12T15:09:56.799Z,11.31
2024-03-12T15:24:49.265Z,11.24
2024-03-12T15:39:40.270Z,11.04
2024-03-12T15:54:30.655Z,10.89
2024-03-12T16:09:21.155Z,10.80
2024-03-12T16:24:12.465Z,10.75
2024-03-12T16:39:03.767Z,10.66
2024-03-12T16:53:55.058Z,10.59
2024-03-12T17:08:46.775Z,10.45
2024-03-12T17:23:37.888Z,10.31
2024-03-12T19:39:05.775Z,9.57
2024-03-12T19:53:59.310Z,9.52
2024-03-12T20:08:51.618Z,9.53
2024-03-12T20:23:43.329Z,9.51
2024-03-12T20:38:35.461Z,9.50
2024-03-12T20:53:26.910Z,9.49
2024-03-12T21:08:18.506Z,9.41
2024-03-12T21:23:10.240Z,9.37
2024-03-12T21:38:02.346Z,9.34
2024-03-12T21:52:54.841Z,9.38
2024-03-12T22:07:45.856Z,9.36
2024-03-12T22:22:40.593Z,9.31
2024-03-12T22:37:34.879Z,9.24
2024-03-12T22:52:28.692Z,9.16
2024-03-12T23:07:21.181Z,9.09
2024-03-12T23:22:12.532Z,9.00
2024-03-12T23:37:03.813Z,8.91
2024-03-12T23:51:54.733Z,8.77
